createdAt,value
2022-10-09T00:00:23.628Z,12.36
2022-10-09T00:01:29.289Z,12.30
2022-10-09T00:02:32.130Z,12.27
2022-10-09T00:03:36.546Z,12.36
2022-10-09T00:04:39.460Z,12.38
2022-10-09T00:05:42.219Z,12.40
2022-10-09T00:06:45.032Z,12.41
2022-10-09T00:07:47.749Z,12.53
2022-10-09T00:08:50.909Z,12.59
2022-10-09T00:09:53.661Z,12.49
2022-10-09T00:10:56.501Z,12.52
2022-10-09T00:11:59.130Z,12.50
2022-10-09T00:13:01.901Z,12.52
2022-10-09T00:14:05.246Z,12.66
2022-10-09T00:15:08.292Z,12.71
2022-10-09T00:16:14.196Z,12.69
2022-10-09T00:17:17.024Z,12.59
2022-10-09T00:18:19.778Z,12.68
2022-10-09T00:19:22.490Z,12.71
2022-10-09T00:20:25.120Z,12.64
2022-10-09T00:21:30.957Z,12.67
2022-10-09T00:22:33.716Z,12.59
2022-10-09T00:23:36.249Z,12.52
2022-10-09T00:24:38.991Z,12.49
2022-10-09T00:25:52.324Z,12.56
2022-10-09T00:26:55.074Z,12.49
2022-10-09T00:27:58.722Z,12.64
2022-10-09T00:29:01.545Z,12.55
2022-10-09T00:30:05.314Z,12.52
2022-10-09T00:31:10.398Z,12.48
2022-10-09T00:32:13.126Z,12.46
2022-10-09T00:33:15.827Z,12.52
2022-10-09T00:34:18.496Z,12.56
2022-10-09T00:35:21.666Z,12.60
2022-10-09T00:36:26.068Z,12.52
2022-10-09T00:37:28.966Z,12.46
2022-10-09T00:38:31.841Z,12.50
2022-10-09T00:39:34.579Z,12.49
2022-10-09T00:40:38.767Z,12.42
2022-10-09T00:41:41.538Z,12.38
2022-10-09T00:42:45.898Z,12.33
2022-10-09T00:43:52.577Z,12.43
2022-10-09T00:44:58.937Z,12.43
2022-10-09T00:46:01.911Z,12.62
2022-10-09T00:47:04.618Z,12.59
2022-10-09T00:48:10.242Z,12.56
2022-10-09T00:49:25.813Z,12.71
2022-10-09T00:50:50.343Z,12.75
2022-10-09T00:51:55.063Z,12.79
2022-10-09T00:53:00.209Z,12.80
2022-10-09T00:54:07.659Z,12.84
2022-10-09T00:55:12.966Z,12.87
2022-10-09T00:56:15.988Z,12.91
2022-10-09T00:57:18.952Z,12.97
2022-10-09T00:58:22.966Z,12.94
2022-10-09T00:59:26.316Z,12.85
2022-10-09T01:00:29.268Z,12.84
2022-10-09T01:01:32.159Z,12.84
2022-10-09T01:02:35.570Z,12.85
2022-10-09T01:03:40.578Z,12.88
2022-10-09T01:04:43.259Z,12.95
2022-10-09T01:06:14.145Z,12.90
2022-10-09T01:07:28.484Z,12.96
2022-10-09T01:09:05.005Z,12.93
2022-10-09T01:10:13.768Z,13.00
2022-10-09T01:11:21.984Z,13.00
2022-10-09T01:12:48.831Z,13.02
2022-10-09T01:14:19.816Z,13.00
2022-10-09T01:15:55.014Z,13.00
2022-10-09T01:17:10.406Z,13.07
2022-10-09T01:18:20.307Z,13.05
2022-10-09T01:19:54.875Z,13.08
2022-10-09T01:21:20.144Z,13.04
2022-10-09T01:22:25.519Z,13.08
2022-10-09T01:23:43.367Z,13.21
2022-10-09T01:25:15.224Z,13.24
2022-10-09T01:26:43.598Z,13.25
2022-10-09T01:27:46.304Z,13.12
2022-10-09T01:28:57.555Z,13.12
2022-10-09T01:30:05.083Z,13.19
2022-10-09T01:31:09.965Z,13.18
2022-10-09T01:32:17.747Z,13.28
2022-10-09T01:33:21.635Z,13.22
2022-10-09T01:34:25.163Z,13.17
2022-10-09T01:35:29.544Z,13.13
2022-10-09T01:36:33.253Z,13.14
2022-10-09T01:37:38.787Z,13.12
2022-10-09T01:38:42.851Z,13.13
2022-10-09T01:39:46.881Z,13.10
2022-10-09T01:40:52.607Z,13.13
2022-10-09T01:41:56.412Z,13.13
2022-10-09T01:42:59.749Z,13.17
2022-10-09T01:44:02.363Z,13.18
2022-10-09T01:45:05.333Z,13.20
2022-10-09T01:46:20.829Z,13.15
2022-10-09T01:47:24.106Z,13.05
2022-10-09T01:48:27.822Z,13.01
2022-10-09T01:49:41.986Z,12.97
2022-10-09T01:50:46.574Z,13.09
2022-10-09T01:51:55.899Z,13.12
2022-10-09T01:53:08.206Z,13.11
2022-10-09T01:54:14.923Z,13.08
2022-10-09T01:55:45.064Z,13.09
2022-10-09T01:56:50.073Z,13.07
2022-10-09T01:58:21.288Z,13.10
2022-10-09T01:59:26.897Z,13.15
2022-10-09T02:00:34.666Z,13.16
2022-10-09T02:01:39.817Z,13.09
2022-10-09T02:02:43.835Z,13.10
2022-10-09T02:03:50.216Z,13.11
2022-10-09T02:04:54.050Z,13.11
2022-10-09T02:05:58.051Z,13.13
2022-10-09T02:07:00.811Z,13.13
2022-10-09T02:08:03.846Z,13.18
2022-10-09T02:09:14.298Z,13.14
2022-10-09T02:10:19.013Z,13.12
2022-10-09T02:11:22.608Z,13.19
2022-10-09T02:12:28.207Z,13.20
2022-10-09T02:13:33.814Z,13.17
2022-10-09T02:14:37.020Z,13.12
2022-10-09T02:15:50.086Z,13.11
2022-10-09T02:17:03.212Z,13.05
2022-10-09T02:18:11.410Z,12.98
2022-10-09T02:19:23.702Z,13.05
2022-10-09T02:20:31.289Z,13.08
2022-10-09T02:21:46.763Z,13.13
2022-10-09T02:22:49.970Z,13.23
2022-10-09T02:23:55.130Z,13.10
2022-10-09T02:25:01.500Z,13.09
2022-10-09T02:26:04.812Z,13.11
2022-10-09T02:27:08.849Z,13.12
2022-10-09T02:28:11.855Z,13.15
2022-10-09T02:29:15.937Z,13.06
2022-10-09T02:30:21.132Z,13.11
2022-10-09T02:31:32.374Z,13.11
2022-10-09T02:32:35.731Z,13.09
2022-10-09T02:33:38.451Z,13.11
2022-10-09T02:34:41.220Z,13.07
2022-10-09T02:35:44.218Z,13.07
2022-10-09T02:36:47.815Z,13.08
2022-10-09T02:37:50.460Z,13.08
2022-10-09T02:38:55.055Z,13.18
2022-10-09T02:39:57.731Z,13.14
2022-10-09T02:41:01.252Z,13.17
2022-10-09T02:42:04.449Z,13.16
2022-10-09T02:43:07.265Z,13.18
2022-10-09T02:44:10.572Z,13.18
2022-10-09T02:45:13.284Z,13.20
2022-10-09T02:46:16.062Z,13.19
2022-10-09T02:47:19.131Z,13.23
2022-10-09T02:48:21.971Z,13.18
2022-10-09T02:49:24.750Z,13.15
2022-10-09T02:50:27.414Z,13.15
2022-10-09T02:51:30.534Z,13.17
2022-10-09T02:52:33.133Z,13.19
2022-10-09T02:53:36.618Z,13.12
2022-10-09T02:54:39.352Z,13.14
2022-10-09T02:55:42.048Z,13.17
2022-10-09T02:56:44.704Z,13.13
2022-10-09T02:57:47.339Z,13.19
2022-10-09T02:58:50.263Z,13.26
2022-10-09T02:59:52.851Z,13.19
2022-10-09T03:00:55.529Z,13.12
2022-10-09T03:01:58.308Z,13.08
2022-10-09T03:03:01.095Z,13.09
2022-10-09T03:04:04.460Z,13.11
2022-10-09T03:05:07.761Z,13.08
2022-10-09T03:06:13.945Z,13.11
2022-10-09T03:07:16.576Z,13.16
2022-10-09T03:08:21.232Z,13.14
2022-10-09T03:09:24.013Z,13.19
2022-10-09T03:10:26.875Z,13.16
2022-10-09T03:11:29.489Z,13.15
2022-10-09T03:12:32.118Z,13.06
2022-10-09T03:13:34.920Z,13.14
2022-10-09T03:14:37.648Z,13.09
2022-10-09T03:15:40.544Z,13.09
2022-10-09T03:16:43.618Z,13.11
2022-10-09T03:17:46.443Z,13.03
2022-10-09T03:18:50.184Z,13.00
2022-10-09T03:19:53.964Z,12.94
2022-10-09T03:20:56.648Z,12.94
2022-10-09T03:21:59.333Z,12.97
2022-10-09T03:23:01.983Z,12.86
2022-10-09T03:24:04.741Z,12.88
2022-10-09T03:25:08.053Z,12.80
2022-10-09T03:26:14.476Z,12.81
2022-10-09T03:27:17.105Z,12.81
2022-10-09T03:28:19.798Z,12.79
2022-10-09T03:29:22.505Z,12.84
2022-10-09T03:30:25.519Z,12.87
2022-10-09T03:31:50.690Z,12.87
2022-10-09T03:32:51.372Z,12.91
2022-10-09T03:33:54.258Z,12.88
2022-10-09T03:34:57.077Z,12.89
2022-10-09T03:36:00.134Z,13.05
2022-10-09T03:37:02.836Z,12.97
2022-10-09T03:38:05.516Z,13.04
2022-10-09T03:39:09.222Z,13.06
2022-10-09T03:40:11.903Z,12.98
2022-10-09T03:41:14.606Z,12.96
2022-10-09T03:42:17.333Z,12.93
2022-10-09T03:43:20.241Z,13.02
2022-10-09T03:44:22.862Z,13.04
2022-10-09T03:45:25.645Z,13.01
2022-10-09T03:46:28.404Z,12.96
2022-10-09T03:47:31.934Z,12.95
2022-10-09T03:48:34.958Z,13.00
2022-10-09T03:49:37.572Z,12.96
2022-10-09T03:50:41.813Z,12.98
2022-10-09T03:51:44.459Z,13.05
2022-10-09T03:52:47.337Z,13.13
2022-10-09T03:53:50.275Z,13.02
2022-10-09T03:54:53.064Z,12.96
2022-10-09T03:55:55.740Z,13.04
2022-10-09T03:56:58.508Z,13.08
2022-10-09T03:58:01.104Z,13.09
2022-10-09T03:59:05.887Z,13.10
2022-10-09T04:00:09.802Z,13.04
2022-10-09T04:01:12.441Z,13.14
2022-10-09T04:02:15.059Z,13.11
2022-10-09T04:03:17.848Z,13.06
2022-10-09T04:04:20.512Z,13.05
2022-10-09T04:05:23.791Z,13.18
2022-10-09T04:06:26.489Z,13.12
2022-10-09T04:07:30.344Z,13.17
2022-10-09T04:08:41.954Z,13.03
2022-10-09T04:09:44.657Z,12.91
2022-10-09T04:10:47.347Z,13.03
2022-10-09T04:11:50.059Z,13.05
2022-10-09T04:12:52.865Z,12.98
2022-10-09T04:13:55.565Z,13.01
2022-10-09T04:14:58.171Z,13.05
2022-10-09T04:16:00.909Z,13.14
2022-10-09T04:17:03.577Z,13.20
2022-10-09T04:18:08.054Z,13.06
2022-10-09T04:19:12.247Z,12.96
2022-10-09T04:20:15.168Z,12.92
2022-10-09T04:21:17.844Z,12.88
2022-10-09T04:22:20.823Z,12.87
2022-10-09T04:23:26.513Z,12.93
2022-10-09T04:24:29.481Z,12.95
2022-10-09T04:25:32.223Z,12.95
2022-10-09T04:26:35.732Z,12.94
2022-10-09T04:27:38.442Z,12.96
2022-10-09T04:28:45.102Z,12.96
2022-10-09T04:29:47.743Z,12.95
2022-10-09T04:30:50.669Z,13.06
2022-10-09T04:31:53.333Z,13.00
2022-10-09T04:32:55.935Z,12.96
2022-10-09T04:33:58.570Z,13.00
2022-10-09T04:35:01.351Z,12.99
2022-10-09T04:36:04.351Z,13.04
2022-10-09T04:37:06.942Z,12.94
2022-10-09T04:38:09.845Z,13.02
2022-10-09T04:39:12.830Z,12.99
2022-10-09T04:40:15.956Z,12.98
2022-10-09T04:41:18.776Z,13.08
2022-10-09T04:42:21.468Z,13.03
2022-10-09T04:43:24.443Z,13.08
2022-10-09T04:44:27.143Z,12.98
2022-10-09T04:45:29.796Z,12.89
2022-10-09T04:46:32.460Z,13.09
2022-10-09T04:47:35.543Z,13.11
2022-10-09T04:48:43.681Z,12.85
2022-10-09T04:49:46.451Z,12.79
2022-10-09T04:50:49.260Z,12.80
2022-10-09T04:51:51.965Z,12.90
2022-10-09T04:52:54.591Z,12.88
2022-10-09T04:54:00.632Z,12.73
2022-10-09T04:55:04.090Z,12.77
2022-10-09T04:56:09.488Z,12.67
2022-10-09T04:57:12.909Z,12.62
2022-10-09T04:58:15.586Z,12.53
2022-10-09T04:59:18.204Z,12.65
2022-10-09T05:00:20.988Z,12.73
2022-10-09T05:01:26.448Z,12.56
2022-10-09T05:02:29.185Z,12.55
2022-10-09T05:03:31.902Z,12.48
2022-10-09T05:04:34.665Z,12.50
2022-10-09T05:05:37.338Z,12.53
2022-10-09T05:06:40.072Z,12.51
2022-10-09T05:07:42.700Z,12.68
2022-10-09T05:08:46.948Z,12.76
2022-10-09T05:09:49.595Z,12.72
2022-10-09T05:10:52.197Z,12.67
2022-10-09T05:11:54.839Z,12.63
2022-10-09T05:12:57.396Z,12.59
2022-10-09T05:14:05.355Z,12.52
2022-10-09T05:15:08.309Z,12.47
2022-10-09T05:16:16.855Z,12.54
2022-10-09T05:17:23.001Z,12.50
2022-10-09T05:18:26.180Z,12.52
2022-10-09T05:19:29.262Z,12.56
2022-10-09T05:20:31.860Z,12.67
2022-10-09T05:21:35.694Z,12.78
2022-10-09T05:22:38.248Z,12.75
2022-10-09T05:23:40.970Z,12.68
2022-10-09T05:24:43.578Z,12.62
2022-10-09T05:25:58.373Z,12.69
2022-10-09T05:27:01.052Z,12.71
2022-10-09T05:28:04.993Z,12.86
2022-10-09T05:29:07.887Z,12.87
2022-10-09T05:30:11.240Z,13.02
2022-10-09T05:31:49.129Z,13.02
2022-10-09T05:32:52.203Z,12.83
2022-10-09T05:33:56.448Z,12.81
2022-10-09T05:34:59.053Z,13.00
2022-10-09T05:36:04.207Z,12.94
2022-10-09T05:37:06.784Z,12.87
2022-10-09T05:38:09.387Z,12.97
2022-10-09T05:39:13.395Z,12.98
2022-10-09T05:40:16.187Z,12.87
2022-10-09T05:41:20.256Z,12.82
2022-10-09T05:42:22.942Z,12.77
2022-10-09T05:43:30.814Z,12.79
2022-10-09T05:44:33.521Z,12.79
2022-10-09T05:45:36.133Z,12.72
2022-10-09T05:46:39.028Z,12.81
2022-10-09T05:47:41.655Z,12.94
2022-10-09T05:48:46.796Z,12.99
2022-10-09T05:49:49.361Z,13.02
2022-10-09T05:50:52.161Z,13.08
2022-10-09T05:51:56.454Z,13.01
2022-10-09T05:52:59.036Z,12.93
2022-10-09T05:54:04.652Z,12.93
2022-10-09T05:55:07.650Z,12.97
2022-10-09T05:56:27.291Z,12.94
2022-10-09T05:57:29.972Z,12.95
2022-10-09T05:58:32.617Z,12.89
2022-10-09T05:59:35.570Z,12.93
2022-10-09T06:00:38.261Z,12.84
2022-10-09T06:01:42.890Z,12.82
2022-10-09T06:02:45.801Z,12.70
2022-10-09T06:03:51.031Z,12.73
2022-10-09T06:04:53.573Z,12.73
2022-10-09T06:06:03.915Z,12.75
2022-10-09T06:07:06.625Z,12.67
2022-10-09T06:08:09.299Z,12.69
2022-10-09T06:09:12.235Z,12.75
2022-10-09T06:10:14.956Z,12.87
2022-10-09T06:11:21.035Z,12.85
2022-10-09T06:12:23.699Z,12.87
2022-10-09T06:13:26.803Z,12.83
2022-10-09T06:14:30.219Z,12.82
2022-10-09T06:15:32.907Z,12.85
2022-10-09T06:16:38.306Z,12.83
2022-10-09T06:17:41.129Z,12.88
2022-10-09T06:18:49.368Z,12.87
2022-10-09T06:19:52.677Z,12.94
2022-10-09T06:20:56.539Z,12.92
2022-10-09T06:21:59.314Z,12.90
2022-10-09T06:23:01.906Z,13.00
2022-10-09T06:24:06.305Z,12.97
2022-10-09T06:25:09.599Z,13.04
2022-10-09T06:26:14.015Z,12.96
2022-10-09T06:27:16.680Z,13.02
2022-10-09T06:28:20.032Z,13.06
2022-10-09T06:29:22.719Z,13.10
2022-10-09T06:30:25.475Z,13.17
2022-10-09T06:31:31.268Z,13.16
2022-10-09T06:32:33.894Z,13.29
2022-10-09T06:33:39.946Z,13.34
2022-10-09T06:34:42.649Z,13.34
2022-10-09T06:35:45.310Z,13.39
2022-10-09T06:36:48.533Z,13.43
2022-10-09T06:37:51.190Z,13.55
2022-10-09T06:38:54.448Z,13.48
2022-10-09T06:39:57.141Z,13.53
2022-10-09T06:41:04.535Z,13.56
2022-10-09T06:42:07.221Z,13.73
2022-10-09T06:43:09.736Z,13.67
2022-10-09T06:44:16.849Z,13.70
2022-10-09T06:45:19.600Z,13.75
2022-10-09T06:46:25.932Z,13.78
2022-10-09T06:47:28.711Z,13.86
2022-10-09T06:48:33.014Z,13.93
2022-10-09T06:49:35.724Z,13.90
2022-10-09T06:50:38.392Z,13.89
2022-10-09T06:51:41.200Z,14.02
2022-10-09T06:52:43.939Z,14.13
2022-10-09T06:53:50.340Z,14.25
2022-10-09T06:54:52.892Z,14.30
2022-10-09T06:55:58.720Z,14.34
2022-10-09T06:57:01.414Z,14.46
2022-10-09T06:58:04.161Z,14.61
2022-10-09T06:59:07.743Z,14.72
2022-10-09T07:00:11.002Z,14.82
2022-10-09T07:01:16.661Z,14.85
2022-10-09T07:02:19.411Z,14.91
2022-10-09T07:03:22.225Z,14.85
2022-10-09T07:04:25.025Z,15.01
2022-10-09T07:05:27.607Z,15.17
2022-10-09T07:06:32.244Z,15.16
2022-10-09T07:07:34.875Z,15.25
2022-10-09T07:08:40.819Z,15.36
2022-10-09T07:09:43.504Z,15.38
2022-10-09T07:10:46.170Z,15.56
2022-10-09T07:11:49.491Z,15.70
2022-10-09T07:12:52.529Z,15.66
2022-10-09T07:13:57.800Z,15.71
2022-10-09T07:15:00.585Z,15.73
2022-10-09T07:16:05.022Z,15.96
2022-10-09T07:17:07.938Z,15.99
2022-10-09T07:18:10.681Z,16.07
2022-10-09T07:19:14.877Z,15.89
2022-10-09T07:20:17.551Z,15.84
2022-10-09T07:21:20.263Z,15.96
2022-10-09T07:22:26.880Z,15.93
2022-10-09T07:23:31.546Z,16.00
2022-10-09T07:24:34.146Z,16.10
2022-10-09T07:25:39.789Z,16.37
2022-10-09T07:26:45.472Z,16.46
2022-10-09T07:27:48.119Z,16.63
2022-10-09T07:28:51.807Z,16.56
2022-10-09T07:29:54.437Z,16.73
2022-10-09T07:30:57.243Z,16.59
2022-10-09T07:31:59.996Z,16.77
2022-10-09T07:33:03.238Z,16.77
2022-10-09T07:34:09.073Z,16.81
2022-10-09T07:35:11.767Z,17.09
2022-10-09T07:36:14.667Z,17.05
2022-10-09T07:37:17.463Z,17.08
2022-10-09T07:38:22.975Z,17.31
2022-10-09T07:39:26.000Z,17.62
2022-10-09T07:40:28.804Z,17.72
2022-10-09T07:41:31.903Z,17.58
2022-10-09T07:42:34.630Z,17.76
2022-10-09T07:43:39.030Z,17.94
2022-10-09T07:44:41.642Z,18.28
2022-10-09T07:45:44.467Z,18.43
2022-10-09T07:46:50.590Z,18.52
2022-10-09T07:47:53.204Z,18.70
2022-10-09T07:48:55.911Z,18.96
2022-10-09T07:49:58.646Z,19.12
2022-10-09T07:51:10.979Z,19.09
2022-10-09T07:52:14.086Z,19.38
2022-10-09T07:53:16.756Z,19.03
2022-10-09T07:54:19.822Z,19.42
2022-10-09T07:55:22.605Z,19.58
2022-10-09T07:56:29.269Z,19.84
2022-10-09T07:57:32.385Z,19.97
2022-10-09T07:58:35.727Z,19.83
2022-10-09T07:59:38.413Z,19.58
2022-10-09T08:00:41.519Z,19.76
2022-10-09T08:01:44.291Z,20.04
2022-10-09T08:02:47.292Z,20.28
2022-10-09T08:03:50.684Z,20.15
2022-10-09T08:04:53.329Z,20.21
2022-10-09T08:05:56.355Z,20.11
2022-10-09T08:07:00.105Z,20.16
2022-10-09T08:08:04.004Z,20.27
2022-10-09T08:09:08.253Z,20.20
2022-10-09T08:10:11.003Z,20.56
2022-10-09T08:11:16.051Z,20.88
2022-10-09T08:12:18.712Z,20.60
2022-10-09T08:13:21.394Z,21.00
2022-10-09T08:14:24.224Z,21.46
2022-10-09T08:15:27.043Z,21.41
2022-10-09T08:16:31.972Z,21.60
2022-10-09T08:17:34.795Z,21.29
2022-10-09T08:18:38.154Z,21.33
2022-10-09T08:19:40.806Z,21.55
2022-10-09T08:20:43.823Z,21.24
2022-10-09T08:21:46.597Z,21.15
2022-10-09T08:22:49.297Z,20.98
2022-10-09T08:23:56.986Z,21.27
2022-10-09T08:25:00.016Z,21.72
2022-10-09T08:26:03.147Z,21.64
2022-10-09T08:27:06.655Z,21.99
2022-10-09T08:28:09.347Z,22.08
2022-10-09T08:29:16.170Z,22.12
2022-10-09T08:30:18.976Z,22.38
2022-10-09T08:31:22.973Z,22.27
2022-10-09T08:32:25.544Z,21.77
2022-10-09T08:33:28.309Z,22.27
2022-10-09T08:34:31.039Z,22.27
2022-10-09T08:35:34.689Z,22.47
2022-10-09T08:36:37.423Z,22.38
2022-10-09T08:37:40.305Z,22.21
2022-10-09T08:38:48.168Z,22.46
2022-10-09T08:39:51.150Z,22.32
2022-10-09T08:41:03.584Z,22.05
2022-10-09T08:42:06.548Z,22.42
2022-10-09T08:43:15.780Z,22.44
2022-10-09T08:44:40.850Z,22.85
2022-10-09T08:45:45.686Z,23.29
2022-10-09T08:47:22.211Z,23.53
2022-10-09T08:48:29.911Z,23.45
2022-10-09T08:50:04.198Z,23.70
2022-10-09T08:51:10.576Z,24.01
2022-10-09T08:52:24.596Z,23.81
2022-10-09T08:53:38.975Z,23.68
2022-10-09T08:54:41.696Z,23.32
2022-10-09T08:55:52.605Z,23.13
2022-10-09T08:56:55.403Z,23.23
2022-10-09T08:58:04.554Z,23.61
2022-10-09T08:59:11.167Z,23.60
2022-10-09T09:00:19.867Z,24.04
2022-10-09T09:01:26.467Z,23.67
2022-10-09T09:02:49.950Z,23.65
2022-10-09T09:04:25.605Z,23.53
2022-10-09T09:05:55.230Z,23.10
2022-10-09T09:07:07.078Z,23.72
2022-10-09T09:08:09.723Z,24.15
2022-10-09T09:09:18.798Z,23.92
2022-10-09T09:10:37.817Z,24.02
2022-10-09T09:12:00.454Z,24.37
2022-10-09T09:13:41.611Z,24.54
2022-10-09T09:15:04.296Z,24.37
2022-10-09T09:16:19.862Z,24.48
2022-10-09T09:17:45.626Z,24.28
2022-10-09T09:19:03.215Z,23.05
2022-10-09T09:20:24.052Z,23.32
2022-10-09T09:21:47.704Z,23.01
2022-10-09T09:22:51.070Z,23.32
2022-10-09T09:23:53.892Z,23.29
2022-10-09T09:24:58.692Z,23.21
2022-10-09T09:26:02.002Z,22.68
2022-10-09T09:27:21.347Z,23.04
2022-10-09T09:28:28.765Z,22.83
2022-10-09T09:29:39.571Z,22.77
2022-10-09T09:30:48.891Z,22.78
2022-10-09T09:31:59.562Z,22.82
2022-10-09T09:33:12.414Z,22.90
2022-10-09T09:34:21.290Z,22.76
2022-10-09T09:35:30.044Z,22.87
2022-10-09T09:36:50.305Z,23.49
2022-10-09T09:37:54.344Z,23.97
2022-10-09T09:40:37.996Z,24.38
2022-10-09T09:41:43.292Z,24.62
2022-10-09T09:42:47.159Z,24.61
2022-10-09T09:43:49.976Z,24.45
2022-10-09T09:44:58.330Z,24.42
2022-10-09T09:46:02.001Z,24.28
2022-10-09T09:47:04.677Z,24.57
2022-10-09T09:48:15.486Z,24.74
2022-10-09T09:49:21.574Z,24.36
2022-10-09T09:50:53.022Z,25.02
2022-10-09T09:52:02.589Z,24.65
2022-10-09T09:53:09.135Z,24.07
2022-10-09T09:54:27.974Z,23.38
2022-10-09T09:55:33.054Z,23.08
2022-10-09T09:57:06.954Z,23.56
2022-10-09T09:58:07.122Z,23.92
2022-10-09T09:59:33.346Z,23.97
2022-10-09T10:00:36.181Z,23.88
2022-10-09T10:01:38.962Z,24.44
2022-10-09T10:02:41.705Z,25.01
2022-10-09T10:03:50.201Z,24.81
2022-10-09T10:05:02.451Z,24.85
2022-10-09T10:06:05.410Z,25.35
2022-10-09T10:07:08.055Z,25.14
2022-10-09T10:08:20.865Z,25.13
2022-10-09T10:09:23.560Z,25.46
2022-10-09T10:10:27.784Z,25.37
2022-10-09T10:11:33.339Z,25.16
2022-10-09T10:12:45.232Z,25.39
2022-10-09T10:13:49.586Z,25.41
2022-10-09T10:14:52.326Z,25.18
2022-10-09T10:15:57.580Z,25.58
2022-10-09T10:17:02.502Z,25.38
2022-10-09T10:18:14.942Z,26.06
2022-10-09T10:19:27.092Z,26.01
2022-10-09T10:20:32.445Z,25.86
2022-10-09T10:21:47.383Z,25.83
2022-10-09T10:22:55.919Z,25.25
2022-10-09T10:24:10.934Z,25.69
2022-10-09T10:25:18.810Z,25.44
2022-10-09T10:27:09.749Z,25.28
2022-10-09T10:28:18.818Z,26.37
2022-10-09T10:29:29.539Z,26.51
2022-10-09T10:30:35.602Z,26.20
2022-10-09T10:31:53.009Z,26.34
2022-10-09T10:33:14.542Z,25.36
2022-10-09T10:34:45.885Z,25.77
2022-10-09T10:35:55.521Z,25.91
2022-10-09T10:37:13.911Z,25.78
2022-10-09T10:38:45.577Z,26.13
2022-10-09T10:39:58.656Z,26.94
2022-10-09T10:41:26.550Z,26.90
2022-10-09T10:42:58.678Z,26.55
2022-10-09T10:44:15.923Z,26.72
2022-10-09T10:45:35.982Z,27.04
2022-10-09T10:46:49.035Z,27.07
2022-10-09T10:47:55.636Z,26.62
2022-10-09T10:49:00.358Z,26.37
2022-10-09T10:50:03.013Z,26.12
2022-10-09T10:51:34.744Z,25.77
2022-10-09T10:53:03.931Z,24.55
2022-10-09T10:54:15.566Z,24.35
2022-10-09T10:55:52.164Z,24.55
2022-10-09T10:57:16.417Z,24.64
2022-10-09T10:58:40.059Z,24.28
2022-10-09T11:00:06.581Z,24.38
2022-10-09T11:01:45.524Z,24.77
2022-10-09T11:03:17.177Z,25.52
2022-10-09T11:04:33.603Z,25.39
2022-10-09T11:05:47.910Z,25.75
2022-10-09T11:07:01.689Z,25.22
2022-10-09T11:08:34.294Z,24.86
2022-10-09T11:09:57.327Z,24.42
2022-10-09T11:11:12.806Z,23.52
2022-10-09T11:12:49.417Z,23.12
2022-10-09T11:14:08.875Z,23.66
2022-10-09T11:15:39.110Z,23.61
2022-10-09T11:17:00.499Z,23.47
2022-10-09T11:18:17.762Z,23.50
2022-10-09T11:19:43.129Z,24.33
2022-10-09T11:21:10.051Z,24.20
2022-10-09T11:22:24.908Z,24.24
2022-10-09T11:23:30.427Z,24.49
2022-10-09T11:24:42.929Z,24.76
2022-10-09T11:26:00.205Z,25.16
2022-10-09T11:27:26.614Z,25.26
2022-10-09T11:28:46.396Z,25.26
2022-10-09T11:29:58.142Z,25.27
2022-10-09T11:31:20.365Z,25.37
2022-10-09T11:32:50.704Z,25.52
2022-10-09T11:33:59.915Z,24.88
2022-10-09T11:35:12.251Z,23.57
2022-10-09T11:36:21.377Z,22.75
2022-10-09T11:37:30.407Z,23.14
2022-10-09T11:38:52.173Z,23.37
2022-10-09T11:39:56.971Z,23.49
2022-10-09T11:41:03.857Z,22.68
2022-10-09T11:42:14.207Z,23.03
2022-10-09T11:43:25.971Z,22.45
2022-10-09T11:45:00.414Z,22.83
2022-10-09T11:46:24.727Z,23.27
2022-10-09T11:48:08.449Z,23.52
2022-10-09T11:49:22.684Z,23.53
2022-10-09T11:50:25.153Z,23.26
2022-10-09T11:51:39.243Z,23.30
2022-10-09T11:53:00.795Z,23.66
2022-10-09T11:54:05.471Z,23.96
2022-10-09T11:55:20.106Z,23.93
2022-10-09T11:56:25.796Z,24.38
2022-10-09T11:57:29.908Z,24.30
2022-10-09T11:58:40.354Z,24.66
2022-10-09T11:59:43.116Z,24.95
2022-10-09T12:00:50.517Z,25.47
2022-10-09T12:01:53.465Z,25.81
2022-10-09T12:03:01.288Z,25.84
2022-10-09T12:04:07.159Z,25.40
2022-10-09T12:05:40.533Z,25.39
2022-10-09T12:06:55.558Z,25.18
2022-10-09T12:08:14.040Z,25.30
2022-10-09T12:09:27.886Z,26.14
2022-10-09T12:10:34.891Z,25.92
2022-10-09T12:11:37.638Z,26.08
2022-10-09T12:12:40.594Z,26.29
2022-10-09T12:13:45.355Z,26.28
2022-10-09T12:14:50.838Z,26.07
2022-10-09T12:15:56.640Z,26.39
2022-10-09T12:17:00.580Z,25.42
2022-10-09T12:18:16.261Z,25.17
2022-10-09T12:19:30.590Z,24.92
2022-10-09T12:20:33.625Z,24.56
2022-10-09T12:22:05.420Z,24.80
2022-10-09T12:23:27.649Z,24.96
2022-10-09T12:24:41.859Z,25.09
2022-10-09T12:25:46.344Z,25.55
2022-10-09T12:26:51.254Z,25.29
2022-10-09T12:27:55.964Z,24.50
2022-10-09T12:29:02.147Z,24.54
2022-10-09T12:30:14.462Z,24.04
2022-10-09T12:31:40.217Z,24.26
2022-10-09T12:32:56.333Z,23.70
2022-10-09T12:34:34.477Z,23.97
2022-10-09T12:35:39.013Z,23.98
2022-10-09T12:36:41.670Z,23.61
2022-10-09T12:37:44.422Z,23.56
2022-10-09T12:38:47.090Z,23.47
2022-10-09T12:39:50.400Z,23.83
2022-10-09T12:40:55.055Z,23.80
2022-10-09T12:41:58.562Z,23.32
2022-10-09T12:43:08.127Z,23.36
2022-10-09T12:44:26.143Z,23.38
2022-10-09T12:45:31.203Z,23.43
2022-10-09T12:46:39.465Z,23.48
2022-10-09T12:47:42.406Z,23.32
2022-10-09T12:48:46.630Z,23.38
2022-10-09T12:50:13.528Z,23.54
2022-10-09T12:51:19.821Z,23.44
2022-10-09T12:52:22.378Z,22.82
2022-10-09T12:53:29.253Z,23.13
2022-10-09T12:54:32.092Z,23.62
2022-10-09T12:55:41.900Z,23.75
2022-10-09T12:56:44.956Z,23.43
2022-10-09T12:57:49.238Z,23.30
2022-10-09T12:58:52.726Z,23.52
2022-10-09T12:59:55.847Z,22.87
2022-10-09T13:01:02.244Z,22.59
2022-10-09T13:02:05.559Z,21.86
2022-10-09T13:03:33.197Z,22.33
2022-10-09T13:04:35.938Z,22.07
2022-10-09T13:05:40.323Z,22.39
2022-10-09T13:06:50.183Z,22.64
2022-10-09T13:07:55.706Z,22.79
2022-10-09T13:09:02.810Z,22.93
2022-10-09T13:10:08.987Z,22.61
2022-10-09T13:11:18.106Z,22.65
2022-10-09T13:12:24.482Z,22.01
2022-10-09T13:13:28.339Z,22.62
2022-10-09T13:14:41.666Z,22.60
2022-10-09T13:15:44.274Z,22.74
2022-10-09T13:16:47.904Z,22.90
2022-10-09T13:17:50.733Z,22.85
2022-10-09T13:19:02.153Z,23.12
2022-10-09T13:20:25.037Z,23.04
2022-10-09T13:21:34.264Z,23.11
2022-10-09T13:22:38.514Z,23.04
2022-10-09T13:23:41.160Z,23.13
2022-10-09T13:24:44.267Z,23.00
2022-10-09T13:25:47.160Z,23.00
2022-10-09T13:26:49.841Z,22.73
2022-10-09T13:27:52.622Z,22.29
2022-10-09T13:28:57.640Z,22.51
2022-10-09T13:30:01.695Z,22.60
2022-10-09T13:31:08.631Z,22.94
2022-10-09T13:32:16.026Z,22.74
2022-10-09T13:33:18.835Z,22.54
2022-10-09T13:34:23.959Z,22.37
2022-10-09T13:35:26.917Z,22.32
2022-10-09T13:36:29.888Z,21.73
2022-10-09T13:37:32.598Z,21.70
2022-10-09T13:38:35.545Z,21.97
2022-10-09T13:39:38.558Z,21.78
2022-10-09T13:40:41.956Z,22.07
2022-10-09T13:41:47.578Z,22.07
2022-10-09T13:42:53.961Z,21.97
2022-10-09T13:43:56.765Z,21.71
2022-10-09T13:44:59.808Z,21.57
2022-10-09T13:46:02.787Z,21.70
2022-10-09T13:47:09.759Z,21.74
2022-10-09T13:48:12.814Z,21.47
2022-10-09T13:49:15.892Z,21.30
2022-10-09T13:50:20.061Z,20.97
2022-10-09T13:51:22.870Z,20.88
2022-10-09T13:52:25.922Z,21.01
2022-10-09T13:53:28.894Z,21.13
2022-10-09T13:54:32.747Z,21.29
2022-10-09T13:55:35.535Z,21.51
2022-10-09T13:56:38.731Z,21.53
2022-10-09T13:57:41.615Z,21.73
2022-10-09T13:58:44.481Z,21.89
2022-10-09T13:59:47.354Z,21.96
2022-10-09T14:00:50.349Z,22.04
2022-10-09T14:01:53.457Z,22.25
2022-10-09T14:02:56.382Z,22.26
2022-10-09T14:03:59.174Z,21.73
2022-10-09T14:05:02.002Z,22.23
2022-10-09T14:06:05.041Z,22.39
2022-10-09T14:07:08.243Z,22.25
2022-10-09T14:08:13.587Z,22.03
2022-10-09T14:09:16.419Z,22.14
2022-10-09T14:10:23.046Z,22.38
2022-10-09T14:11:27.755Z,22.52
2022-10-09T14:12:30.617Z,22.69
2022-10-09T14:13:34.648Z,22.70
2022-10-09T14:14:37.588Z,22.00
2022-10-09T14:15:42.940Z,22.05
2022-10-09T14:16:45.691Z,21.98
2022-10-09T14:17:48.703Z,22.25
2022-10-09T14:18:54.917Z,22.30
2022-10-09T14:19:57.968Z,22.16
2022-10-09T14:21:00.876Z,22.24
2022-10-09T14:22:03.954Z,22.10
2022-10-09T14:23:06.673Z,21.87
2022-10-09T14:24:10.464Z,21.77
2022-10-09T14:25:13.304Z,21.57
2022-10-09T14:26:16.102Z,21.69